createdAt,value
2018-01-27T00:01:12.326Z,98129
2018-01-27T00:03:41.271Z,98137
2018-01-27T00:06:09.441Z,98144
2018-01-27T00:08:37.614Z,98147
2018-01-27T00:11:05.790Z,98155
2018-01-27T00:13:33.972Z,98153
2018-01-27T00:16:02.150Z,98160
2018-01-27T00:18:31.083Z,98157
2018-01-27T00:21:00.026Z,98153
2018-01-27T00:23:28.190Z,98155
2018-01-27T00:25:56.366Z,98157
2018-01-27T00:28:24.537Z,98164
2018-01-27T00:30:52.698Z,98167
2018-01-27T00:33:20.876Z,98163
2018-01-27T00:35:49.058Z,98166
2018-01-27T00:38:17.223Z,98166
2018-01-27T00:40:45.381Z,98169
2018-01-27T00:43:14.319Z,98171
2018-01-27T00:45:42.496Z,98174
2018-01-27T00:48:10.674Z,98182
2018-01-27T00:50:38.835Z,98186
2018-01-27T00:53:07.006Z,98187
2018-01-27T00:55:35.182Z,98186
2018-01-27T00:58:03.346Z,98192
2018-01-27T01:00:31.550Z,98195
2018-01-27T01:03:00.492Z,98199
2018-01-27T01:05:28.657Z,98205
2018-01-27T01:07:57.602Z,98202
2018-01-27T01:10:25.790Z,98202
2018-01-27T01:12:53.957Z,98202
2018-01-27T01:15:22.130Z,98198
2018-01-27T01:17:50.304Z,98197
2018-01-27T01:20:18.479Z,98202
2018-01-27T01:22:46.642Z,98201
2018-01-27T01:25:14.807Z,98199
2018-01-27T01:27:42.981Z,98202
2018-01-27T01:30:11.178Z,98201
2018-01-27T01:32:39.345Z,98203
2018-01-27T01:35:07.519Z,98202
2018-01-27T01:37:35.677Z,98208
2018-01-27T01:40:03.856Z,98211
2018-01-27T01:42:37.581Z,98216
2018-01-27T01:45:06.523Z,98213
2018-01-27T01:47:34.682Z,98215
2018-01-27T01:50:03.618Z,98218
2018-01-27T01:52:31.789Z,98218
2018-01-27T01:54:59.948Z,98207
2018-01-27T01:57:28.138Z,98222
2018-01-27T01:59:56.325Z,98228
2018-01-27T02:02:24.486Z,98230
2018-01-27T02:04:52.660Z,98242
2018-01-27T02:07:20.814Z,98240
2018-01-27T02:09:49.005Z,98241
2018-01-27T02:12:17.163Z,98241
2018-01-27T02:14:45.356Z,98237
2018-01-27T02:17:13.548Z,98243
2018-01-27T02:19:41.714Z,98244
2018-01-27T02:22:09.905Z,98247
2018-01-27T02:24:38.086Z,98245
2018-01-27T02:27:06.248Z,98246
2018-01-27T02:29:34.409Z,98249
2018-01-27T02:32:02.585Z,98254
2018-01-27T02:34:30.784Z,98254
2018-01-27T02:36:58.948Z,98256
2018-01-27T02:39:27.108Z,98252
2018-01-27T02:41:55.290Z,98255
2018-01-27T02:44:23.496Z,98265
2018-01-27T02:46:51.666Z,98266
2018-01-27T02:49:19.822Z,98269
2018-01-27T02:51:47.989Z,98273
2018-01-27T02:54:16.156Z,98273
2018-01-27T02:56:44.356Z,98277
2018-01-27T02:59:12.554Z,98279
2018-01-27T03:01:40.725Z,98282
2018-01-27T03:04:08.893Z,98289
2018-01-27T03:06:37.059Z,98297
2018-01-27T03:09:05.281Z,98296
2018-01-27T03:11:33.446Z,98304
2018-01-27T03:14:02.377Z,98308
2018-01-27T03:16:30.547Z,98309
2018-01-27T03:18:58.723Z,98308
2018-01-27T03:21:26.900Z,98307
2018-01-27T03:23:55.058Z,98308
2018-01-27T03:26:23.234Z,98313
2018-01-27T03:28:51.407Z,98317
2018-01-27T03:31:19.597Z,98329
2018-01-27T03:33:47.764Z,98332
2018-01-27T03:36:15.926Z,98336
2018-01-27T03:38:44.089Z,98342
2018-01-27T03:41:12.262Z,98349
2018-01-27T03:43:40.427Z,98351
2018-01-27T03:46:09.365Z,98358
2018-01-27T03:48:37.530Z,98359
2018-01-27T03:51:05.709Z,98361
2018-01-27T03:53:33.888Z,98361
2018-01-27T03:56:02.051Z,98366
2018-01-27T03:58:30.223Z,98365
2018-01-27T04:00:58.388Z,98367
2018-01-27T04:03:26.570Z,98366
2018-01-27T04:05:54.729Z,98364
2018-01-27T04:08:22.889Z,98375
2018-01-27T04:10:51.824Z,98374
2018-01-27T04:13:19.998Z,98369
2018-01-27T04:15:48.164Z,98379
2018-01-27T04:18:16.337Z,98381
2018-01-27T04:20:44.520Z,98387
2018-01-27T04:23:12.696Z,98395
2018-01-27T04:25:40.863Z,98395
2018-01-27T04:28:09.042Z,98395
2018-01-27T04:30:37.219Z,98393
2018-01-27T04:33:05.391Z,98400
2018-01-27T04:35:33.582Z,98398
2018-01-27T04:38:01.745Z,98398
2018-01-27T04:40:29.927Z,98404
2018-01-27T04:42:58.125Z,98406
2018-01-27T04:45:26.305Z,98419
2018-01-27T04:47:54.461Z,98417
2018-01-27T04:50:22.622Z,98418
2018-01-27T04:52:50.783Z,98422
2018-01-27T04:55:18.957Z,98425
2018-01-27T04:57:47.141Z,98427
2018-01-27T05:00:15.317Z,98428
2018-01-27T05:02:43.471Z,98436
2018-01-27T05:05:11.624Z,98444
2018-01-27T05:07:40.550Z,98451
2018-01-27T05:10:08.725Z,98453
2018-01-27T05:12:36.889Z,98453
2018-01-27T05:15:05.074Z,98460
2018-01-27T05:17:33.263Z,98465
2018-01-27T05:20:01.423Z,98470
2018-01-27T05:22:29.641Z,98473
2018-01-27T05:24:57.798Z,98475
2018-01-27T05:27:25.954Z,98473
2018-01-27T05:29:54.157Z,98480
2018-01-27T05:32:22.340Z,98481
2018-01-27T05:34:50.574Z,98481
2018-01-27T05:37:18.741Z,98481
2018-01-27T05:39:46.937Z,98481
2018-01-27T05:42:15.131Z,98486
2018-01-27T05:44:43.290Z,98483
2018-01-27T05:47:11.471Z,98489
2018-01-27T05:49:39.652Z,98486
2018-01-27T05:52:07.825Z,98496
2018-01-27T05:54:36.054Z,98506
2018-01-27T05:57:04.221Z,98510
2018-01-27T05:59:32.385Z,98518
2018-01-27T06:02:01.328Z,98515
2018-01-27T06:04:29.495Z,98522
2018-01-27T06:06:57.698Z,98528
2018-01-27T06:09:25.869Z,98533
2018-01-27T06:11:54.102Z,98542
2018-01-27T06:14:22.290Z,98544
2018-01-27T06:16:50.534Z,98544
2018-01-27T06:19:18.728Z,98543
2018-01-27T06:21:46.913Z,98543
2018-01-27T06:24:15.093Z,98554
2018-01-27T06:26:43.250Z,98561
2018-01-27T06:29:11.405Z,98564
2018-01-27T06:31:39.562Z,98568
2018-01-27T06:34:08.491Z,98567
2018-01-27T06:36:36.663Z,98571
2018-01-27T06:39:04.886Z,98578
2018-01-27T06:41:33.050Z,98577
2018-01-27T06:44:01.211Z,98577
2018-01-27T06:46:29.373Z,98577
2018-01-27T06:48:57.545Z,98588
2018-01-27T06:51:25.713Z,98595
2018-01-27T06:53:53.882Z,98598
2018-01-27T06:56:22.040Z,98604
2018-01-27T06:58:50.211Z,98614
2018-01-27T07:01:19.129Z,98617
2018-01-27T07:03:47.306Z,98625
2018-01-27T07:06:15.477Z,98627
2018-01-27T07:08:43.645Z,98635
2018-01-27T07:11:11.815Z,98636
2018-01-27T07:13:39.982Z,98630
2018-01-27T07:16:08.226Z,98633
2018-01-27T07:18:36.413Z,98637
2018-01-27T07:21:07.236Z,98639
2018-01-27T07:23:35.400Z,98644
2018-01-27T07:26:03.557Z,98640
2018-01-27T07:28:31.718Z,98645
2018-01-27T07:30:59.905Z,98648
2018-01-27T07:33:28.072Z,98653
2018-01-27T07:35:56.232Z,98652
2018-01-27T07:38:24.409Z,98658
2018-01-27T07:40:52.581Z,98661
2018-01-27T07:43:20.750Z,98662
2018-01-27T07:45:48.928Z,98665
2018-01-27T07:48:17.120Z,98668
2018-01-27T07:50:45.304Z,98668
2018-01-27T07:53:13.475Z,98674
2018-01-27T07:55:41.642Z,98681
2018-01-27T07:58:09.816Z,98678
2018-01-27T08:00:38.430Z,98683
2018-01-27T08:03:06.596Z,98692
2018-01-27T08:05:34.794Z,98692
2018-01-27T08:08:03.742Z,98692
2018-01-27T08:10:31.942Z,98694
2018-01-27T08:13:00.104Z,98703
2018-01-27T08:15:28.289Z,98706
2018-01-27T08:17:56.496Z,98699
2018-01-27T08:20:25.439Z,98703
2018-01-27T08:22:53.600Z,98706
2018-01-27T08:25:21.764Z,98710
2018-01-27T08:27:49.924Z,98714
2018-01-27T08:30:18.715Z,98716
2018-01-27T08:32:46.933Z,98714
2018-01-27T08:35:15.095Z,98728
2018-01-27T08:37:43.271Z,98723
2018-01-27T08:40:11.464Z,98732
2018-01-27T08:42:39.625Z,98729
2018-01-27T08:45:07.804Z,98735
2018-01-27T08:47:35.996Z,98739
2018-01-27T08:50:04.182Z,98740
2018-01-27T08:52:32.392Z,98738
2018-01-27T08:55:00.580Z,98748
2018-01-27T08:57:28.740Z,98745
2018-01-27T09:00:08.307Z,98748
2018-01-27T09:02:37.326Z,98759
2018-01-27T09:05:05.497Z,98758
2018-01-27T09:07:33.694Z,98769
2018-01-27T09:10:01.859Z,98767
2018-01-27T09:12:30.024Z,98762
2018-01-27T09:14:58.246Z,98758
2018-01-27T09:17:27.200Z,98777
2018-01-27T09:19:55.389Z,98770
2018-01-27T09:22:23.559Z,98768
2018-01-27T09:24:51.778Z,98773
2018-01-27T09:27:20.711Z,98771
2018-01-27T09:29:49.559Z,98776
2018-01-27T09:32:17.738Z,98774
2018-01-27T09:34:46.682Z,98777
2018-01-27T09:37:14.847Z,98779
2018-01-27T09:39:43.027Z,98774
2018-01-27T09:42:11.207Z,98776
2018-01-27T09:44:44.832Z,98780
2018-01-27T09:47:16.052Z,98779
2018-01-27T09:49:46.654Z,98782
2018-01-27T09:52:15.698Z,98787
2018-01-27T09:54:44.215Z,98805
2018-01-27T09:57:12.388Z,98800
2018-01-27T09:59:40.560Z,98807
2018-01-27T10:02:09.525Z,98805
2018-01-27T10:04:37.700Z,98797
2018-01-27T10:07:05.872Z,98798
2018-01-27T10:09:34.168Z,98797
2018-01-27T10:12:03.107Z,98793
2018-01-27T10:14:31.276Z,98787
2018-01-27T10:16:59.459Z,98788
2018-01-27T10:19:27.634Z,98792
2018-01-27T10:21:55.830Z,98788
2018-01-27T10:24:24.036Z,98789
2018-01-27T10:26:53.004Z,98784
2018-01-27T10:29:21.173Z,98780
2018-01-27T10:31:49.617Z,98786
2018-01-27T10:34:17.789Z,98784
2018-01-27T10:36:45.973Z,98781
2018-01-27T10:39:14.195Z,98787
2018-01-27T10:41:42.365Z,98784
2018-01-27T10:44:10.541Z,98784
2018-01-27T10:46:38.725Z,98785
2018-01-27T10:49:08.397Z,98789
2018-01-27T10:51:36.583Z,98791
2018-01-27T10:54:04.760Z,98790
2018-01-27T10:56:32.928Z,98791
2018-01-27T10:59:01.098Z,98792
2018-01-27T11:01:29.380Z,98789
2018-01-27T11:03:57.598Z,98799
2018-01-27T11:06:26.563Z,98800
2018-01-27T11:08:54.739Z,98809
2018-01-27T11:11:22.916Z,98808
2018-01-27T11:13:51.106Z,98811
2018-01-27T11:16:20.057Z,98811
2018-01-27T11:18:48.241Z,98810
2018-01-27T11:21:16.411Z,98815
2018-01-27T11:23:44.590Z,98811
2018-01-27T11:26:12.769Z,98813
2018-01-27T11:28:40.940Z,98815
2018-01-27T11:31:09.126Z,98815
2018-01-27T11:33:37.325Z,98818
2018-01-27T11:36:06.263Z,98817
2018-01-27T11:38:34.445Z,98820
2018-01-27T11:41:02.629Z,98822
2018-01-27T11:43:30.803Z,98823
2018-01-27T11:45:58.995Z,98821
2018-01-27T11:48:27.175Z,98819
2018-01-27T11:50:55.346Z,98816
2018-01-27T11:53:23.528Z,98815
2018-01-27T11:55:51.743Z,98814
2018-01-27T11:58:19.953Z,98817
2018-01-27T12:00:48.127Z,98813
2018-01-27T12:03:16.329Z,98812
2018-01-27T12:05:44.601Z,98807
2018-01-27T12:08:12.773Z,98813
2018-01-27T12:10:40.973Z,98809
2018-01-27T12:13:09.919Z,98809
2018-01-27T12:15:38.097Z,98814
2018-01-27T12:18:06.266Z,98810
2018-01-27T12:20:34.469Z,98811
2018-01-27T12:23:02.643Z,98813
2018-01-27T12:25:30.819Z,98812
2018-01-27T12:27:59.077Z,98806
2018-01-27T12:30:27.234Z,98806
2018-01-27T12:32:55.410Z,98811
2018-01-27T12:35:23.647Z,98807
2018-01-27T12:37:51.866Z,98808
2018-01-27T12:40:20.074Z,98811
2018-01-27T12:42:49.045Z,98814
2018-01-27T12:45:17.223Z,98815
2018-01-27T12:47:45.405Z,98814
2018-01-27T12:50:13.588Z,98815
2018-01-27T12:52:41.775Z,98812
2018-01-27T12:55:10.716Z,98815
2018-01-27T12:57:38.889Z,98814
2018-01-27T13:00:07.126Z,98812
2018-01-27T13:02:36.061Z,98824
2018-01-27T13:05:04.296Z,98825
2018-01-27T13:07:32.492Z,98823
2018-01-27T13:10:00.684Z,98820
2018-01-27T13:12:28.882Z,98823
2018-01-27T13:14:57.062Z,98828
2018-01-27T13:17:25.259Z,98832
2018-01-27T13:19:54.206Z,98839
2018-01-27T13:22:22.379Z,98842
2018-01-27T13:24:51.329Z,98845
2018-01-27T13:27:19.548Z,98851
2018-01-27T13:29:47.770Z,98854
2018-01-27T13:32:16.716Z,98853
2018-01-27T13:34:44.906Z,98848
2018-01-27T13:37:13.072Z,98858
2018-01-27T13:39:41.259Z,98859
2018-01-27T13:42:09.434Z,98862
2018-01-27T13:44:37.622Z,98860
2018-01-27T13:47:05.811Z,98863
2018-01-27T13:49:34.784Z,98869
2018-01-27T13:52:02.988Z,98861
2018-01-27T13:54:31.928Z,98863
2018-01-27T13:57:00.125Z,98863
2018-01-27T13:59:28.463Z,98862
2018-01-27T14:01:57.318Z,98865
2018-01-27T14:04:26.267Z,98869
2018-01-27T14:06:54.439Z,98871
2018-01-27T14:09:22.609Z,98877
2018-01-27T14:11:51.550Z,98877
2018-01-27T14:14:20.498Z,98878
2018-01-27T14:16:48.710Z,98878
2018-01-27T14:19:17.662Z,98886
2018-01-27T14:21:46.596Z,98882
2018-01-27T14:24:15.640Z,98883
2018-01-27T14:26:43.840Z,98884
2018-01-27T14:29:12.042Z,98887
2018-01-27T14:31:40.269Z,98889
2018-01-27T14:34:08.434Z,98888
2018-01-27T14:36:40.450Z,98894
2018-01-27T14:39:09.430Z,98900
2018-01-27T14:41:37.667Z,98907
2018-01-27T14:44:05.848Z,98907
2018-01-27T14:46:34.082Z,98908
2018-01-27T14:49:03.114Z,98901
2018-01-27T14:51:31.283Z,98904
2018-01-27T14:53:59.481Z,98907
2018-01-27T14:56:27.675Z,98905
2018-01-27T14:58:55.854Z,98914
2018-01-27T15:01:24.062Z,98917
2018-01-27T15:03:53.005Z,98919
2018-01-27T15:06:21.192Z,98923
2018-01-27T15:08:49.370Z,98917
2018-01-27T15:11:17.585Z,98917
2018-01-27T15:13:45.778Z,98919
2018-01-27T15:16:13.953Z,98921
2018-01-27T15:18:42.130Z,98926
2018-01-27T15:21:10.406Z,98926
2018-01-27T15:23:38.591Z,98934
2018-01-27T15:26:06.773Z,98929
2018-01-27T15:28:34.999Z,98938
2018-01-27T15:31:05.377Z,98940
2018-01-27T15:33:35.971Z,98942
2018-01-27T15:36:04.361Z,98944
2018-01-27T15:38:32.536Z,98946
2018-01-27T15:41:00.727Z,98950
2018-01-27T15:43:28.999Z,98953
2018-01-27T15:45:57.181Z,98952
2018-01-27T15:48:25.399Z,98954
2018-01-27T15:50:54.348Z,98970
2018-01-27T15:53:22.519Z,98979
2018-01-27T15:55:50.791Z,98972
2018-01-27T15:58:18.987Z,98973
2018-01-27T16:00:47.175Z,98972
2018-01-27T16:03:15.373Z,98970
2018-01-27T16:05:44.331Z,98976
2018-01-27T16:08:12.518Z,98978
2018-01-27T16:10:40.725Z,98982
2018-01-27T16:13:09.691Z,98989
2018-01-27T16:15:37.889Z,98998
2018-01-27T16:18:06.848Z,99005
2018-01-27T16:20:35.055Z,99003
2018-01-27T16:23:04.017Z,99009
2018-01-27T16:25:32.206Z,99010
2018-01-27T16:28:00.453Z,99012
2018-01-27T16:30:28.712Z,99014
2018-01-27T16:32:56.920Z,99018
2018-01-27T16:35:25.096Z,99018
2018-01-27T16:37:53.317Z,99016
2018-01-27T16:40:21.510Z,99017
2018-01-27T16:42:49.760Z,99018
2018-01-27T16:45:18.713Z,99026
2018-01-27T16:47:46.920Z,99024
2018-01-27T16:50:15.894Z,99022
2018-01-27T16:52:44.098Z,99030
2018-01-27T16:55:13.030Z,99031
2018-01-27T16:57:41.211Z,99041
2018-01-27T17:00:09.467Z,99049
2018-01-27T17:02:37.748Z,99049
2018-01-27T17:05:05.960Z,99054
2018-01-27T17:07:34.165Z,99059
2018-01-27T17:10:03.155Z,99068
2018-01-27T17:12:32.132Z,99067
2018-01-27T17:15:01.221Z,99069
2018-01-27T17:17:29.401Z,99071
2018-01-27T17:19:59.137Z,99068
2018-01-27T17:22:28.085Z,99071
2018-01-27T17:24:56.334Z,99075
2018-01-27T17:27:24.546Z,99087
2018-01-27T17:29:52.750Z,99093
2018-01-27T17:32:21.815Z,99098
2018-01-27T17:34:50.058Z,99098
2018-01-27T17:37:18.248Z,99096
2018-01-27T17:39:46.509Z,99097
2018-01-27T17:42:14.704Z,99093
2018-01-27T17:44:43.308Z,99093
2018-01-27T17:47:12.053Z,99096
2018-01-27T17:49:40.260Z,99102
2018-01-27T17:52:09.221Z,99104
2018-01-27T17:54:37.433Z,99102
2018-01-27T17:57:05.608Z,99108
2018-01-27T17:59:33.790Z,99110
2018-01-27T18:02:02.058Z,99107
2018-01-27T18:04:30.385Z,99109
2018-01-27T18:06:58.625Z,99117
2018-01-27T18:09:26.814Z,99120
2018-01-27T18:11:55.756Z,99116
2018-01-27T18:14:23.957Z,99122
2018-01-27T18:16:52.147Z,99126
2018-01-27T18:19:20.323Z,99124
2018-01-27T18:21:49.307Z,99123
2018-01-27T18:24:17.484Z,99123
2018-01-27T18:26:45.665Z,99126
2018-01-27T18:29:14.610Z,99120
2018-01-27T18:31:42.813Z,99118
2018-01-27T18:34:11.119Z,99134
2018-01-27T18:36:40.074Z,99148
2018-01-27T18:39:08.395Z,99155
2018-01-27T18:41:37.346Z,99151
2018-01-27T18:44:05.513Z,99147
2018-01-27T18:46:33.688Z,99139
2018-01-27T18:49:02.644Z,99137
2018-01-27T18:51:31.591Z,99133
2018-01-27T18:53:59.767Z,99137
2018-01-27T18:56:27.958Z,99135
2018-01-27T18:58:56.908Z,99135
2018-01-27T19:01:25.089Z,99139
2018-01-27T19:03:53.290Z,99142
2018-01-27T19:06:21.458Z,99146
2018-01-27T19:08:49.646Z,99147
2018-01-27T19:11:17.838Z,99147
2018-01-27T19:13:46.778Z,99146
2018-01-27T19:16:15.737Z,99148
2018-01-27T19:18:43.928Z,99144
2018-01-27T19:21:12.110Z,99144
2018-01-27T19:23:40.281Z,99153
2018-01-27T19:26:08.469Z,99154
2018-01-27T19:28:36.639Z,99159
2018-01-27T19:34:49.622Z,99165
2018-01-27T19:37:17.813Z,99166
2018-01-27T19:39:46.759Z,99167
2018-01-27T19:42:14.969Z,99164
2018-01-27T19:44:43.156Z,99158
2018-01-27T19:47:11.347Z,99157
2018-01-27T19:49:39.522Z,99160
2018-01-27T19:52:07.706Z,99165
2018-01-27T19:54:35.903Z,99176
2018-01-27T19:57:04.087Z,99169
2018-01-27T19:59:32.290Z,99167
2018-01-27T20:02:00.463Z,99171
2018-01-27T20:04:28.642Z,99174
2018-01-27T20:06:56.833Z,99177
2018-01-27T20:09:25.823Z,99182
2018-01-27T20:11:54.787Z,99186
2018-01-27T20:14:22.966Z,99188
2018-01-27T20:16:51.150Z,99186
2018-01-27T20:19:19.323Z,99189
2018-01-27T20:21:47.592Z,99194
2018-01-27T20:24:18.404Z,99193
2018-01-27T20:26:51.579Z,99197
2018-01-27T20:29:19.773Z,99194
2018-01-27T20:31:47.968Z,99198
2018-01-27T20:34:16.506Z,99199
2018-01-27T20:36:45.039Z,99206
2018-01-27T20:39:14.147Z,99202
2018-01-27T20:41:43.133Z,99203
2018-01-27T20:44:11.315Z,99208
2018-01-27T20:46:45.296Z,99204
2018-01-27T20:49:13.716Z,99206
2018-01-27T20:51:42.665Z,99209
2018-01-27T20:54:10.915Z,99213
2018-01-27T20:56:39.120Z,99216
2018-01-27T20:59:07.324Z,99212
2018-01-27T21:01:36.271Z,99213
2018-01-27T21:04:04.496Z,99215
2018-01-27T21:06:33.481Z,99214
2018-01-27T21:09:01.970Z,99216
2018-01-27T21:11:33.613Z,99213
2018-01-27T21:14:01.828Z,99214
2018-01-27T21:16:30.729Z,99209
2018-01-27T21:19:02.951Z,99210
2018-01-27T21:21:31.123Z,99205
2018-01-27T21:23:59.302Z,99211
2018-01-27T21:26:31.184Z,99211
2018-01-27T21:28:59.876Z,99215
2018-01-27T21:31:28.096Z,99217
2018-01-27T21:33:56.290Z,99216
2018-01-27T21:36:26.269Z,99214
2018-01-27T21:38:58.121Z,99219
2018-01-27T21:41:26.290Z,99220
2018-01-27T21:43:54.478Z,99227
2018-01-27T21:46:22.663Z,99229
2018-01-27T21:48:50.847Z,99227
2018-01-27T23:13:16.703Z,99243
2018-01-27T23:15:45.825Z,99241
2018-01-27T23:18:14.034Z,99231
2018-01-27T23:20:42.211Z,99231
2018-01-27T23:23:10.401Z,99219
2018-01-27T23:25:39.358Z,99205
2018-01-27T23:28:07.613Z,99209
2018-01-27T23:30:35.797Z,99203
2018-01-27T23:33:04.007Z,99211
2018-01-27T23:35:32.178Z,99204
2018-01-27T23:38:01.154Z,99199
2018-01-27T23:40:29.364Z,99196
2018-01-27T23:42:58.305Z,99198
2018-01-27T23:45:26.476Z,99195
2018-01-27T23:47:54.658Z,99195
2018-01-27T23:50:22.863Z,99204
2018-01-27T23:52:51.043Z,99204
2018-01-27T23:55:19.215Z,99201
2018-01-27T23:57:48.169Z,99198
